sensor_id;sensor_type;location;lat;lon;timestamp;P1;durP1;ratioP1;P2;durP2;ratioP2
11839;SDS011;5979;50.800;4.904;2024-02-26T00:01:26;1.90;;;1.80;;
11839;SDS011;5979;50.800;4.904;2024-02-26T00:03:52;3.67;;;2.00;;
11839;SDS011;5979;50.800;4.904;2024-02-26T00:06:19;2.45;;;2.10;;
11839;SDS011;5979;50.800;4.904;2024-02-26T00:08:44;2.13;;;1.63;;
11839;SDS011;5979;50.800;4.904;2024-02-26T00:11:10;3.92;;;1.70;;
11839;SDS011;5979;50.800;4.904;2024-02-26T00:13:36;1.75;;;1.65;;
11839;SDS011;5979;50.800;4.904;2024-02-26T00:16:02;2.42;;;1.70;;
11839;SDS011;5979;50.800;4.904;2024-02-26T00:18:29;2.03;;;1.63;;
11839;SDS011;5979;50.800;4.904;2024-02-26T00:20:54;2.00;;;1.90;;
11839;SDS011;5979;50.800;4.904;2024-02-26T00:23:20;1.80;;;1.70;;
11839;SDS011;5979;50.800;4.904;2024-02-26T00:25:46;1.98;;;1.80;;
11839;SDS011;5979;50.800;4.904;2024-02-26T00:28:11;2.53;;;1.83;;
11839;SDS011;5979;50.800;4.904;2024-02-26T00:30:38;2.97;;;2.00;;
11839;SDS011;5979;50.800;4.904;2024-02-26T00:33:04;3.75;;;2.00;;
11839;SDS011;5979;50.800;4.904;2024-02-26T00:35:29;2.58;;;1.80;;
11839;SDS011;5979;50.800;4.904;2024-02-26T00:37:55;1.92;;;1.77;;
11839;SDS011;5979;50.800;4.904;2024-02-26T00:40:21;1.60;;;1.50;;
11839;SDS011;5979;50.800;4.904;2024-02-26T00:42:46;3.05;;;1.70;;
11839;SDS011;5979;50.800;4.904;2024-02-26T00:45:13;1.50;;;1.40;;
11839;SDS011;5979;50.800;4.904;2024-02-26T00:47:39;1.70;;;1.60;;
11839;SDS011;5979;50.800;4.904;2024-02-26T00:50:06;2.95;;;1.70;;
11839;SDS011;5979;50.800;4.904;2024-02-26T00:52:33;1.95;;;1.80;;
11839;SDS011;5979;50.800;4.904;2024-02-26T00:54:59;2.00;;;1.90;;
11839;SDS011;5979;50.800;4.904;2024-02-26T00:57:25;1.88;;;1.77;;
11839;SDS011;5979;50.800;4.904;2024-02-26T00:59:50;1.80;;;1.70;;
11839;SDS011;5979;50.800;4.904;2024-02-26T01:02:17;3.40;;;1.80;;
11839;SDS011;5979;50.800;4.904;2024-02-26T01:04:43;1.70;;;1.60;;
11839;SDS011;5979;50.800;4.904;2024-02-26T01:07:08;3.58;;;2.10;;
11839;SDS011;5979;50.800;4.904;2024-02-26T01:09:34;2.05;;;1.95;;
11839;SDS011;5979;50.800;4.904;2024-02-26T01:12:00;1.80;;;1.70;;
11839;SDS011;5979;50.800;4.904;2024-02-26T01:14:27;1.80;;;1.70;;
11839;SDS011;5979;50.800;4.904;2024-02-26T01:16:53;1.55;;;1.45;;
11839;SDS011;5979;50.800;4.904;2024-02-26T01:19:18;1.90;;;1.80;;
11839;SDS011;5979;50.800;4.904;2024-02-26T01:21:44;1.63;;;1.52;;
11839;SDS011;5979;50.800;4.904;2024-02-26T01:24:10;2.20;;;1.80;;
11839;SDS011;5979;50.800;4.904;2024-02-26T01:26:36;1.80;;;1.70;;
11839;SDS011;5979;50.800;4.904;2024-02-26T01:29:01;1.65;;;1.55;;
11839;SDS011;5979;50.800;4.904;2024-02-26T01:31:27;3.22;;;1.60;;
11839;SDS011;5979;50.800;4.904;2024-02-26T01:33:53;2.83;;;1.80;;
11839;SDS011;5979;50.800;4.904;2024-02-26T01:36:19;2.80;;;1.58;;
11839;SDS011;5979;50.800;4.904;2024-02-26T01:38:45;1.83;;;1.40;;
11839;SDS011;5979;50.800;4.904;2024-02-26T01:41:13;1.23;;;1.23;;
11839;SDS011;5979;50.800;4.904;2024-02-26T01:43:39;1.95;;;1.50;;
11839;SDS011;5979;50.800;4.904;2024-02-26T01:46:04;6.53;;;1.73;;
11839;SDS011;5979;50.800;4.904;2024-02-26T01:48:31;1.60;;;1.50;;
11839;SDS011;5979;50.800;4.904;2024-02-26T01:50:56;1.40;;;1.30;;
11839;SDS011;5979;50.800;4.904;2024-02-26T01:53:23;1.60;;;1.50;;
11839;SDS011;5979;50.800;4.904;2024-02-26T01:55:49;1.83;;;1.35;;
11839;SDS011;5979;50.800;4.904;2024-02-26T01:58:15;2.10;;;1.33;;
11839;SDS011;5979;50.800;4.904;2024-02-26T02:00:41;1.73;;;1.23;;
11839;SDS011;5979;50.800;4.904;2024-02-26T02:03:07;1.50;;;1.40;;
11839;SDS011;5979;50.800;4.904;2024-02-26T02:05:33;1.55;;;1.45;;
11839;SDS011;5979;50.800;4.904;2024-02-26T02:08:06;1.65;;;1.40;;
11839;SDS011;5979;50.800;4.904;2024-02-26T02:10:32;2.42;;;1.40;;
11839;SDS011;5979;50.800;4.904;2024-02-26T02:12:58;2.63;;;1.48;;
11839;SDS011;5979;50.800;4.904;2024-02-26T02:15:24;1.73;;;1.40;;
11839;SDS011;5979;50.800;4.904;2024-02-26T02:17:50;1.92;;;1.40;;
11839;SDS011;5979;50.800;4.904;2024-02-26T02:20:16;1.50;;;1.45;;
11839;SDS011;5979;50.800;4.904;2024-02-26T02:22:46;1.33;;;1.20;;
11839;SDS011;5979;50.800;4.904;2024-02-26T02:25:12;1.27;;;1.20;;
11839;SDS011;5979;50.800;4.904;2024-02-26T02:27:38;1.55;;;1.45;;
11839;SDS011;5979;50.800;4.904;2024-02-26T02:30:05;1.45;;;1.30;;
11839;SDS011;5979;50.800;4.904;2024-02-26T02:32:32;1.20;;;1.20;;
11839;SDS011;5979;50.800;4.904;2024-02-26T02:34:58;1.90;;;1.80;;
11839;SDS011;5979;50.800;4.904;2024-02-26T02:37:24;1.58;;;1.48;;
11839;SDS011;5979;50.800;4.904;2024-02-26T02:39:50;1.58;;;1.48;;
11839;SDS011;5979;50.800;4.904;2024-02-26T02:42:15;1.25;;;1.20;;
11839;SDS011;5979;50.800;4.904;2024-02-26T02:44:41;1.83;;;1.50;;
11839;SDS011;5979;50.800;4.904;2024-02-26T02:47:06;1.35;;;1.30;;
11839;SDS011;5979;50.800;4.904;2024-02-26T02:49:32;1.30;;;1.20;;
11839;SDS011;5979;50.800;4.904;2024-02-26T02:51:58;1.10;;;1.10;;
11839;SDS011;5979;50.800;4.904;2024-02-26T02:54:23;2.00;;;1.20;;
11839;SDS011;5979;50.800;4.904;2024-02-26T02:56:49;2.90;;;1.30;;
11839;SDS011;5979;50.800;4.904;2024-02-26T02:59:15;1.45;;;1.35;;
11839;SDS011;5979;50.800;4.904;2024-02-26T03:01:40;1.33;;;1.10;;
11839;SDS011;5979;50.800;4.904;2024-02-26T03:04:06;1.38;;;1.27;;
11839;SDS011;5979;50.800;4.904;2024-02-26T03:06:31;1.20;;;1.13;;
11839;SDS011;5979;50.800;4.904;2024-02-26T03:08:57;2.17;;;1.50;;
11839;SDS011;5979;50.800;4.904;2024-02-26T03:11:23;1.75;;;1.65;;
11839;SDS011;5979;50.800;4.904;2024-02-26T03:13:48;1.10;;;1.10;;
11839;SDS011;5979;50.800;4.904;2024-02-26T03:16:14;1.52;;;1.42;;
11839;SDS011;5979;50.800;4.904;2024-02-26T03:18:41;1.40;;;1.40;;
11839;SDS011;5979;50.800;4.904;2024-02-26T03:21:07;1.23;;;1.13;;
11839;SDS011;5979;50.800;4.904;2024-02-26T03:23:33;1.42;;;1.30;;
11839;SDS011;5979;50.800;4.904;2024-02-26T03:26:02;1.85;;;1.75;;
11839;SDS011;5979;50.800;4.904;2024-02-26T03:28:29;1.80;;;1.70;;
11839;SDS011;5979;50.800;4.904;2024-02-26T03:30:55;2.55;;;1.75;;
11839;SDS011;5979;50.800;4.904;2024-02-26T03:33:21;1.67;;;1.58;;
11839;SDS011;5979;50.800;4.904;2024-02-26T03:35:47;2.03;;;1.92;;
11839;SDS011;5979;50.800;4.904;2024-02-26T03:38:12;1.67;;;1.58;;
11839;SDS011;5979;50.800;4.904;2024-02-26T03:40:38;1.58;;;1.52;;
11839;SDS011;5979;50.800;4.904;2024-02-26T03:43:04;1.90;;;1.80;;
11839;SDS011;5979;50.800;4.904;2024-02-26T03:45:32;2.00;;;1.77;;
11839;SDS011;5979;50.800;4.904;2024-02-26T03:47:58;1.90;;;1.80;;
11839;SDS011;5979;50.800;4.904;2024-02-26T03:50:23;2.08;;;1.98;;
11839;SDS011;5979;50.800;4.904;2024-02-26T03:52:49;2.40;;;2.20;;
11839;SDS011;5979;50.800;4.904;2024-02-26T03:55:15;1.92;;;1.83;;
11839;SDS011;5979;50.800;4.904;2024-02-26T03:57:43;2.28;;;2.03;;
11839;SDS011;5979;50.800;4.904;2024-02-26T04:00:08;2.35;;;2.10;;
11839;SDS011;5979;50.800;4.904;2024-02-26T04:02:35;2.45;;;2.28;;
11839;SDS011;5979;50.800;4.904;2024-02-26T04:05:00;2.45;;;2.35;;
11839;SDS011;5979;50.800;4.904;2024-02-26T04:07:26;3.08;;;2.83;;
11839;SDS011;5979;50.800;4.904;2024-02-26T04:09:51;2.50;;;2.30;;
11839;SDS011;5979;50.800;4.904;2024-02-26T04:12:17;2.80;;;2.35;;
11839;SDS011;5979;50.800;4.904;2024-02-26T04:14:43;2.40;;;2.30;;
11839;SDS011;5979;50.800;4.904;2024-02-26T04:17:09;2.20;;;2.10;;
11839;SDS011;5979;50.800;4.904;2024-02-26T04:19:36;2.63;;;2.20;;
11839;SDS011;5979;50.800;4.904;2024-02-26T04:22:01;2.08;;;1.98;;
11839;SDS011;5979;50.800;4.904;2024-02-26T04:24:27;2.67;;;2.00;;
11839;SDS011;5979;50.800;4.904;2024-02-26T04:26:53;2.08;;;2.00;;
11839;SDS011;5979;50.800;4.904;2024-02-26T04:29:18;2.05;;;1.95;;
11839;SDS011;5979;50.800;4.904;2024-02-26T04:31:44;3.03;;;2.50;;
11839;SDS011;5979;50.800;4.904;2024-02-26T04:34:11;2.05;;;1.85;;
11839;SDS011;5979;50.800;4.904;2024-02-26T04:36:37;2.65;;;1.98;;
11839;SDS011;5979;50.800;4.904;2024-02-26T04:39:02;3.63;;;2.00;;
11839;SDS011;5979;50.800;4.904;2024-02-26T04:41:28;2.22;;;2.03;;
11839;SDS011;5979;50.800;4.904;2024-02-26T04:43:54;2.00;;;1.90;;
11839;SDS011;5979;50.800;4.904;2024-02-26T04:46:19;2.15;;;2.05;;
11839;SDS011;5979;50.800;4.904;2024-02-26T04:48:47;2.55;;;1.90;;
11839;SDS011;5979;50.800;4.904;2024-02-26T04:51:12;2.60;;;2.40;;
11839;SDS011;5979;50.800;4.904;2024-02-26T04:53:38;3.15;;;2.40;;
11839;SDS011;5979;50.800;4.904;2024-02-26T04:56:04;2.13;;;2.03;;
11839;SDS011;5979;50.800;4.904;2024-02-26T04:58:29;3.10;;;2.10;;
11839;SDS011;5979;50.800;4.904;2024-02-26T05:00:55;2.60;;;2.40;;
11839;SDS011;5979;50.800;4.904;2024-02-26T05:03:21;2.30;;;2.20;;
11839;SDS011;5979;50.800;4.904;2024-02-26T05:05:47;2.85;;;2.65;;
11839;SDS011;5979;50.800;4.904;2024-02-26T05:08:12;2.90;;;2.67;;
11839;SDS011;5979;50.800;4.904;2024-02-26T05:10:38;3.08;;;2.83;;
11839;SDS011;5979;50.800;4.904;2024-02-26T05:13:06;2.60;;;2.50;;
11839;SDS011;5979;50.800;4.904;2024-02-26T05:15:31;3.10;;;2.80;;
11839;SDS011;5979;50.800;4.904;2024-02-26T05:17:57;3.35;;;3.13;;
11839;SDS011;5979;50.800;4.904;2024-02-26T05:20:23;4.05;;;3.75;;
11839;SDS011;5979;50.800;4.904;2024-02-26T05:22:49;4.20;;;3.60;;
11839;SDS011;5979;50.800;4.904;2024-02-26T05:25:15;4.15;;;3.90;;
11839;SDS011;5979;50.800;4.904;2024-02-26T05:27:41;4.38;;;3.97;;
11839;SDS011;5979;50.800;4.904;2024-02-26T05:30:08;4.43;;;4.13;;
11839;SDS011;5979;50.800;4.904;2024-02-26T05:32:34;4.50;;;4.03;;
11839;SDS011;5979;50.800;4.904;2024-02-26T05:35:00;4.75;;;4.45;;
11839;SDS011;5979;50.800;4.904;2024-02-26T05:37:28;4.40;;;4.07;;
11839;SDS011;5979;50.800;4.904;2024-02-26T05:39:53;5.28;;;4.88;;
11839;SDS011;5979;50.800;4.904;2024-02-26T05:42:19;4.95;;;4.55;;
11839;SDS011;5979;50.800;4.904;2024-02-26T05:44:44;4.65;;;4.32;;
11839;SDS011;5979;50.800;4.904;2024-02-26T05:47:10;4.80;;;4.50;;
11839;SDS011;5979;50.800;4.904;2024-02-26T05:49:36;4.70;;;4.40;;
11839;SDS011;5979;50.800;4.904;2024-02-26T05:52:01;5.38;;;4.88;;
11839;SDS011;5979;50.800;4.904;2024-02-26T05:54:27;5.50;;;4.82;;
11839;SDS011;5979;50.800;4.904;2024-02-26T05:56:53;5.95;;;4.55;;
11839;SDS011;5979;50.800;4.904;2024-02-26T05:59:18;5.50;;;5.00;;
11839;SDS011;5979;50.800;4.904;2024-02-26T06:01:44;5.90;;;5.40;;
11839;SDS011;5979;50.800;4.904;2024-02-26T06:04:10;5.40;;;4.93;;
11839;SDS011;5979;50.800;4.904;2024-02-26T06:06:37;7.00;;;5.75;;
11839;SDS011;5979;50.800;4.904;2024-02-26T06:09:03;6.50;;;5.90;;
11839;SDS011;5979;50.800;4.904;2024-02-26T06:11:30;5.75;;;5.25;;
11839;SDS011;5979;50.800;4.904;2024-02-26T06:13:56;6.13;;;5.60;;
11839;SDS011;5979;50.800;4.904;2024-02-26T06:16:21;6.35;;;5.55;;
11839;SDS011;5979;50.800;4.904;2024-02-26T06:18:47;6.72;;;6.15;;
11839;SDS011;5979;50.800;4.904;2024-02-26T06:21:13;6.80;;;6.20;;
11839;SDS011;5979;50.800;4.904;2024-02-26T06:23:39;6.95;;;6.22;;
11839;SDS011;5979;50.800;4.904;2024-02-26T06:26:05;6.53;;;5.75;;
11839;SDS011;5979;50.800;4.904;2024-02-26T06:28:31;6.25;;;5.75;;
11839;SDS011;5979;50.800;4.904;2024-02-26T06:30:58;7.78;;;6.65;;
11839;SDS011;5979;50.800;4.904;2024-02-26T06:33:24;7.82;;;6.47;;
11839;SDS011;5979;50.800;4.904;2024-02-26T06:35:50;7.05;;;6.38;;
11839;SDS011;5979;50.800;4.904;2024-02-26T06:38:16;6.53;;;6.03;;
11839;SDS011;5979;50.800;4.904;2024-02-26T06:40:42;9.65;;;6.25;;
11839;SDS011;5979;50.800;4.904;2024-02-26T06:43:08;7.97;;;7.28;;
11839;SDS011;5979;50.800;4.904;2024-02-26T06:45:34;8.55;;;7.03;;
11839;SDS011;5979;50.800;4.904;2024-02-26T06:48:00;7.45;;;6.63;;
11839;SDS011;5979;50.800;4.904;2024-02-26T06:50:26;7.25;;;6.55;;
11839;SDS011;5979;50.800;4.904;2024-02-26T06:52:51;8.02;;;6.88;;
11839;SDS011;5979;50.800;4.904;2024-02-26T06:55:17;8.25;;;7.45;;
11839;SDS011;5979;50.800;4.904;2024-02-26T06:57:43;8.60;;;7.70;;
11839;SDS011;5979;50.800;4.904;2024-02-26T07:00:08;8.15;;;7.40;;
11839;SDS011;5979;50.800;4.904;2024-02-26T07:02:39;8.75;;;7.85;;
11839;SDS011;5979;50.800;4.904;2024-02-26T07:05:05;8.93;;;8.02;;
11839;SDS011;5979;50.800;4.904;2024-02-26T07:07:31;8.88;;;7.28;;
11839;SDS011;5979;50.800;4.904;2024-02-26T07:09:57;9.13;;;8.23;;
11839;SDS011;5979;50.800;4.904;2024-02-26T07:12:23;7.78;;;7.00;;
11839;SDS011;5979;50.800;4.904;2024-02-26T07:14:49;9.75;;;7.43;;
11839;SDS011;5979;50.800;4.904;2024-02-26T07:17:15;8.25;;;7.43;;
11839;SDS011;5979;50.800;4.904;2024-02-26T07:19:41;7.85;;;7.05;;
11839;SDS011;5979;50.800;4.904;2024-02-26T07:22:07;7.40;;;6.70;;
11839;SDS011;5979;50.800;4.904;2024-02-26T07:24:33;8.43;;;7.60;;
11839;SDS011;5979;50.800;4.904;2024-02-26T07:26:58;8.80;;;7.10;;
11839;SDS011;5979;50.800;4.904;2024-02-26T07:29:24;7.43;;;6.57;;
11839;SDS011;5979;50.800;4.904;2024-02-26T07:31:49;8.18;;;7.38;;
11839;SDS011;5979;50.800;4.904;2024-02-26T07:34:15;10.00;;;6.70;;
11839;SDS011;5979;50.800;4.904;2024-02-26T07:36:41;9.60;;;6.47;;
11839;SDS011;5979;50.800;4.904;2024-02-26T07:39:06;6.70;;;6.18;;
11839;SDS011;5979;50.800;4.904;2024-02-26T07:41:32;7.32;;;6.63;;
11839;SDS011;5979;50.800;4.904;2024-02-26T07:43:58;6.60;;;6.00;;
11839;SDS011;5979;50.800;4.904;2024-02-26T07:46:23;7.35;;;5.95;;
11839;SDS011;5979;50.800;4.904;2024-02-26T07:48:49;7.55;;;6.07;;
11839;SDS011;5979;50.800;4.904;2024-02-26T07:51:15;6.78;;;6.15;;
11839;SDS011;5979;50.800;4.904;2024-02-26T07:53:40;5.93;;;5.35;;
11839;SDS011;5979;50.800;4.904;2024-02-26T07:56:06;6.40;;;5.78;;
11839;SDS011;5979;50.800;4.904;2024-02-26T07:58:32;6.68;;;6.07;;
11839;SDS011;5979;50.800;4.904;2024-02-26T08:00:58;7.35;;;5.80;;
11839;SDS011;5979;50.800;4.904;2024-02-26T08:03:24;6.65;;;6.03;;
11839;SDS011;5979;50.800;4.904;2024-02-26T08:05:50;6.00;;;5.40;;
11839;SDS011;5979;50.800;4.904;2024-02-26T08:08:16;6.70;;;6.10;;
11839;SDS011;5979;50.800;4.904;2024-02-26T08:10:42;6.85;;;5.55;;
11839;SDS011;5979;50.800;4.904;2024-02-26T08:13:08;6.45;;;5.90;;
11839;SDS011;5979;50.800;4.904;2024-02-26T08:15:34;6.30;;;5.38;;
11839;SDS011;5979;50.800;4.904;2024-02-26T08:18:02;6.38;;;5.88;;
11839;SDS011;5979;50.800;4.904;2024-02-26T08:20:31;6.53;;;5.90;;
11839;SDS011;5979;50.800;4.904;2024-02-26T08:22:57;7.05;;;6.20;;
11839;SDS011;5979;50.800;4.904;2024-02-26T08:25:23;9.40;;;6.13;;
11839;SDS011;5979;50.800;4.904;2024-02-26T08:27:50;7.32;;;6.63;;
11839;SDS011;5979;50.800;4.904;2024-02-26T08:30:16;7.32;;;6.68;;
11839;SDS011;5979;50.800;4.904;2024-02-26T08:32:42;7.20;;;6.60;;
11839;SDS011;5979;50.800;4.904;2024-02-26T08:35:09;7.93;;;7.13;;
11839;SDS011;5979;50.800;4.904;2024-02-26T08:37:35;7.80;;;7.07;;
11839;SDS011;5979;50.800;4.904;2024-02-26T08:40:00;7.45;;;6.78;;
11839;SDS011;5979;50.800;4.904;2024-02-26T08:42:26;7.50;;;6.80;;
11839;SDS011;5979;50.800;4.904;2024-02-26T08:44:51;8.57;;;7.80;;
11839;SDS011;5979;50.800;4.904;2024-02-26T08:47:19;8.93;;;7.60;;
11839;SDS011;5979;50.800;4.904;2024-02-26T08:49:45;9.73;;;7.93;;
11839;SDS011;5979;50.800;4.904;2024-02-26T08:52:11;8.68;;;7.80;;
11839;SDS011;5979;50.800;4.904;2024-02-26T08:54:37;8.73;;;7.93;;
11839;SDS011;5979;50.800;4.904;2024-02-26T08:57:03;9.35;;;8.55;;
11839;SDS011;5979;50.800;4.904;2024-02-26T08:59:29;8.77;;;8.07;;
11839;SDS011;5979;50.800;4.904;2024-02-26T09:01:54;9.75;;;8.85;;
11839;SDS011;5979;50.800;4.904;2024-02-26T09:04:20;9.85;;;8.95;;
11839;SDS011;5979;50.800;4.904;2024-02-26T09:06:46;9.98;;;8.98;;
11839;SDS011;5979;50.800;4.904;2024-02-26T09:09:12;10.55;;;9.55;;
11839;SDS011;5979;50.800;4.904;2024-02-26T09:11:37;10.35;;;9.45;;
11839;SDS011;5979;50.800;4.904;2024-02-26T09:14:03;10.45;;;9.45;;
11839;SDS011;5979;50.800;4.904;2024-02-26T09:16:29;11.15;;;10.15;;
11839;SDS011;5979;50.800;4.904;2024-02-26T09:18:55;12.40;;;10.60;;
11839;SDS011;5979;50.800;4.904;2024-02-26T09:21:22;13.32;;;10.60;;
11839;SDS011;5979;50.800;4.904;2024-02-26T09:23:50;11.90;;;10.77;;
11839;SDS011;5979;50.800;4.904;2024-02-26T09:26:16;10.23;;;9.43;;
11839;SDS011;5979;50.800;4.904;2024-02-26T09:28:42;11.10;;;10.07;;
11839;SDS011;5979;50.800;4.904;2024-02-26T09:31:07;11.27;;;10.00;;
11839;SDS011;5979;50.800;4.904;2024-02-26T09:33:33;10.95;;;9.93;;
11839;SDS011;5979;50.800;4.904;2024-02-26T09:36:00;10.93;;;10.02;;
11839;SDS011;5979;50.800;4.904;2024-02-26T09:38:26;11.43;;;10.32;;
11839;SDS011;5979;50.800;4.904;2024-02-26T09:40:52;10.30;;;9.30;;
11839;SDS011;5979;50.800;4.904;2024-02-26T09:43:19;11.23;;;10.15;;
11839;SDS011;5979;50.800;4.904;2024-02-26T09:45:47;10.60;;;9.50;;
11839;SDS011;5979;50.800;4.904;2024-02-26T09:48:15;10.05;;;9.05;;
11839;SDS011;5979;50.800;4.904;2024-02-26T09:50:42;9.93;;;9.02;;
11839;SDS011;5979;50.800;4.904;2024-02-26T09:53:10;9.48;;;8.68;;
11839;SDS011;5979;50.800;4.904;2024-02-26T09:55:37;9.93;;;9.05;;
11839;SDS011;5979;50.800;4.904;2024-02-26T09:58:03;9.75;;;8.93;;
11839;SDS011;5979;50.800;4.904;2024-02-26T10:00:30;9.52;;;8.73;;
11839;SDS011;5979;50.800;4.904;2024-02-26T10:03:00;9.90;;;9.00;;
11839;SDS011;5979;50.800;4.904;2024-02-26T10:05:28;9.82;;;8.77;;
11839;SDS011;5979;50.800;4.904;2024-02-26T10:07:55;8.75;;;7.88;;
11839;SDS011;5979;50.800;4.904;2024-02-26T10:10:22;8.85;;;7.97;;
11839;SDS011;5979;50.800;4.904;2024-02-26T10:12:48;8.50;;;7.90;;
11839;SDS011;5979;50.800;4.904;2024-02-26T10:15:14;8.40;;;7.60;;
11839;SDS011;5979;50.800;4.904;2024-02-26T10:17:40;8.23;;;7.53;;
11839;SDS011;5979;50.800;4.904;2024-02-26T10:20:19;8.40;;;7.70;;
11839;SDS011;5979;50.800;4.904;2024-02-26T10:22:48;7.90;;;7.28;;
11839;SDS011;5979;50.800;4.904;2024-02-26T10:25:14;7.63;;;6.97;;
11839;SDS011;5979;50.800;4.904;2024-02-26T10:27:40;7.90;;;7.20;;
11839;SDS011;5979;50.800;4.904;2024-02-26T10:32:44;7.97;;;7.20;;
11839;SDS011;5979;50.800;4.904;2024-02-26T10:35:11;8.00;;;7.40;;
11839;SDS011;5979;50.800;4.904;2024-02-26T10:37:38;7.90;;;7.30;;
11839;SDS011;5979;50.800;4.904;2024-02-26T10:40:05;9.15;;;8.35;;
11839;SDS011;5979;50.800;4.904;2024-02-26T10:42:34;8.73;;;7.88;;
11839;SDS011;5979;50.800;4.904;2024-02-26T10:45:00;9.32;;;8.50;;
11839;SDS011;5979;50.800;4.904;2024-02-26T10:47:27;9.32;;;8.38;;
11839;SDS011;5979;50.800;4.904;2024-02-26T10:49:54;9.13;;;8.32;;
11839;SDS011;5979;50.800;4.904;2024-02-26T10:52:21;10.15;;;9.23;;
11839;SDS011;5979;50.800;4.904;2024-02-26T10:54:50;9.50;;;8.60;;
11839;SDS011;5979;50.800;4.904;2024-02-26T10:57:19;10.43;;;9.52;;
11839;SDS011;5979;50.800;4.904;2024-02-26T10:59:46;10.75;;;9.80;;
11839;SDS011;5979;50.800;4.904;2024-02-26T11:02:14;10.25;;;9.25;;
11839;SDS011;5979;50.800;4.904;2024-02-26T11:04:40;9.98;;;9.07;;
11839;SDS011;5979;50.800;4.904;2024-02-26T11:07:07;9.75;;;8.85;;
11839;SDS011;5979;50.800;4.904;2024-02-26T11:09:35;10.55;;;9.57;;
11839;SDS011;5979;50.800;4.904;2024-02-26T11:12:06;10.10;;;9.20;;
11839;SDS011;5979;50.800;4.904;2024-02-26T11:14:36;10.38;;;9.48;;
11839;SDS011;5979;50.800;4.904;2024-02-26T11:17:08;11.43;;;9.88;;
11839;SDS011;5979;50.800;4.904;2024-02-26T11:19:36;9.90;;;9.10;;
11839;SDS011;5979;50.800;4.904;2024-02-26T11:22:04;10.05;;;9.25;;
11839;SDS011;5979;50.800;4.904;2024-02-26T11:24:30;9.68;;;8.88;;
11839;SDS011;5979;50.800;4.904;2024-02-26T11:26:57;11.38;;;10.27;;
11839;SDS011;5979;50.800;4.904;2024-02-26T11:29:28;9.52;;;8.77;;
11839;SDS011;5979;50.800;4.904;2024-02-26T11:31:59;9.77;;;8.98;;
11839;SDS011;5979;50.800;4.904;2024-02-26T11:34:25;10.30;;;9.45;;
11839;SDS011;5979;50.800;4.904;2024-02-26T11:36:52;9.43;;;8.65;;
11839;SDS011;5979;50.800;4.904;2024-02-26T11:39:18;10.10;;;9.20;;
11839;SDS011;5979;50.800;4.904;2024-02-26T11:41:44;9.50;;;8.70;;
11839;SDS011;5979;50.800;4.904;2024-02-26T11:44:10;10.32;;;9.43;;
11839;SDS011;5979;50.800;4.904;2024-02-26T11:46:42;9.93;;;9.07;;
11839;SDS011;5979;50.800;4.904;2024-02-26T11:51:55;9.13;;;8.35;;
11839;SDS011;5979;50.800;4.904;2024-02-26T12:00:14;8.90;;;8.25;;
11839;SDS011;5979;50.800;4.904;2024-02-26T12:02:49;8.50;;;7.80;;
11839;SDS011;5979;50.800;4.904;2024-02-26T12:05:22;8.13;;;7.53;;
11839;SDS011;5979;50.800;4.904;2024-02-26T12:07:52;8.15;;;7.45;;
11839;SDS011;5979;50.800;4.904;2024-02-26T12:10:26;8.98;;;8.20;;
11839;SDS011;5979;50.800;4.904;2024-02-26T12:12:59;8.30;;;7.57;;
11839;SDS011;5979;50.800;4.904;2024-02-26T12:15:37;7.75;;;7.15;;
11839;SDS011;5979;50.800;4.904;2024-02-26T12:18:12;8.05;;;7.43;;
11839;SDS011;5979;50.800;4.904;2024-02-26T12:20:41;7.60;;;7.10;;
11839;SDS011;5979;50.800;4.904;2024-02-26T12:23:09;8.27;;;7.40;;
11839;SDS011;5979;50.800;4.904;2024-02-26T12:25:39;8.50;;;7.90;;
11839;SDS011;5979;50.800;4.904;2024-02-26T12:28:05;7.82;;;7.28;;
11839;SDS011;5979;50.800;4.904;2024-02-26T12:30:32;8.30;;;7.60;;
11839;SDS011;5979;50.800;4.904;2024-02-26T12:32:58;8.57;;;7.95;;
11839;SDS011;5979;50.800;4.904;2024-02-26T12:35:26;8.05;;;7.35;;
11839;SDS011;5979;50.800;4.904;2024-02-26T12:37:53;7.65;;;7.05;;
11839;SDS011;5979;50.800;4.904;2024-02-26T12:40:19;7.75;;;7.05;;
11839;SDS011;5979;50.800;4.904;2024-02-26T12:42:45;7.47;;;6.88;;
11839;SDS011;5979;50.800;4.904;2024-02-26T12:45:12;7.85;;;7.15;;
11839;SDS011;5979;50.800;4.904;2024-02-26T12:47:39;7.72;;;7.13;;
11839;SDS011;5979;50.800;4.904;2024-02-26T12:50:09;7.57;;;6.97;;
11839;SDS011;5979;50.800;4.904;2024-02-26T12:52:37;7.65;;;7.05;;
11839;SDS011;5979;50.800;4.904;2024-02-26T12:55:05;7.55;;;6.95;;
11839;SDS011;5979;50.800;4.904;2024-02-26T12:57:38;7.93;;;7.22;;
11839;SDS011;5979;50.800;4.904;2024-02-26T13:00:04;7.97;;;7.38;;
11839;SDS011;5979;50.800;4.904;2024-02-26T13:02:34;7.63;;;7.03;;
11839;SDS011;5979;50.800;4.904;2024-02-26T13:05:01;7.10;;;6.60;;
11839;SDS011;5979;50.800;4.904;2024-02-26T13:07:28;6.90;;;6.50;;
11839;SDS011;5979;50.800;4.904;2024-02-26T13:09:53;7.10;;;6.60;;
11839;SDS011;5979;50.800;4.904;2024-02-26T13:12:20;7.43;;;6.72;;
11839;SDS011;5979;50.800;4.904;2024-02-26T13:14:46;7.35;;;6.82;;
11839;SDS011;5979;50.800;4.904;2024-02-26T13:17:12;7.88;;;7.38;;
11839;SDS011;5979;50.800;4.904;2024-02-26T13:19:48;7.32;;;6.72;;
11839;SDS011;5979;50.800;4.904;2024-02-26T13:22:15;8.18;;;7.50;;
11839;SDS011;5979;50.800;4.904;2024-02-26T13:24:41;7.25;;;6.75;;
11839;SDS011;5979;50.800;4.904;2024-02-26T13:27:07;7.65;;;6.97;;
11839;SDS011;5979;50.800;4.904;2024-02-26T13:29:33;7.10;;;6.60;;
11839;SDS011;5979;50.800;4.904;2024-02-26T13:31:59;7.40;;;6.85;;
11839;SDS011;5979;50.800;4.904;2024-02-26T13:34:25;7.00;;;6.50;;
11839;SDS011;5979;50.800;4.904;2024-02-26T13:36:52;7.70;;;7.10;;
11839;SDS011;5979;50.800;4.904;2024-02-26T13:39:28;7.47;;;6.80;;
11839;SDS011;5979;50.800;4.904;2024-02-26T13:41:53;6.80;;;6.30;;
11839;SDS011;5979;50.800;4.904;2024-02-26T13:44:22;7.25;;;6.75;;
11839;SDS011;5979;50.800;4.904;2024-02-26T13:46:49;7.50;;;6.95;;
11839;SDS011;5979;50.800;4.904;2024-02-26T13:49:15;7.47;;;6.88;;
11839;SDS011;5979;50.800;4.904;2024-02-26T13:51:40;8.50;;;7.80;;
11839;SDS011;5979;50.800;4.904;2024-02-26T13:54:06;8.00;;;7.30;;
11839;SDS011;5979;50.800;4.904;2024-02-26T13:56:32;8.55;;;7.75;;
11839;SDS011;5979;50.800;4.904;2024-02-26T13:58:58;8.07;;;7.38;;
11839;SDS011;5979;50.800;4.904;2024-02-26T14:01:25;8.98;;;8.27;;
11839;SDS011;5979;50.800;4.904;2024-02-26T14:03:50;9.57;;;8.77;;
11839;SDS011;5979;50.800;4.904;2024-02-26T14:06:16;9.38;;;8.57;;
11839;SDS011;5979;50.800;4.904;2024-02-26T14:08:42;9.73;;;8.93;;
11839;SDS011;5979;50.800;4.904;2024-02-26T14:11:08;10.10;;;9.20;;
11839;SDS011;5979;50.800;4.904;2024-02-26T14:13:33;10.90;;;10.00;;
11839;SDS011;5979;50.800;4.904;2024-02-26T14:15:59;11.98;;;10.88;;
11839;SDS011;5979;50.800;4.904;2024-02-26T14:18:25;11.48;;;10.50;;
11839;SDS011;5979;50.800;4.904;2024-02-26T14:20:52;12.30;;;11.20;;
11839;SDS011;5979;50.800;4.904;2024-02-26T14:23:17;12.38;;;11.27;;
11839;SDS011;5979;50.800;4.904;2024-02-26T14:25:43;12.77;;;11.52;;
11839;SDS011;5979;50.800;4.904;2024-02-26T14:28:09;14.07;;;12.68;;
11839;SDS011;5979;50.800;4.904;2024-02-26T14:30:34;12.95;;;11.77;;
11839;SDS011;5979;50.800;4.904;2024-02-26T14:33:00;13.25;;;11.95;;
11839;SDS011;5979;50.800;4.904;2024-02-26T14:35:26;14.10;;;12.60;;
11839;SDS011;5979;50.800;4.904;2024-02-26T14:37:51;13.10;;;11.63;;
11839;SDS011;5979;50.800;4.904;2024-02-26T14:40:17;13.52;;;12.18;;
11839;SDS011;5979;50.800;4.904;2024-02-26T14:42:44;14.13;;;12.65;;
11839;SDS011;5979;50.800;4.904;2024-02-26T14:45:09;13.40;;;11.75;;
11839;SDS011;5979;50.800;4.904;2024-02-26T14:47:36;13.68;;;12.32;;
11839;SDS011;5979;50.800;4.904;2024-02-26T14:50:02;14.18;;;12.68;;
11839;SDS011;5979;50.800;4.904;2024-02-26T14:52:28;14.20;;;12.63;;
11839;SDS011;5979;50.800;4.904;2024-02-26T14:54:54;13.90;;;12.50;;
11839;SDS011;5979;50.800;4.904;2024-02-26T14:57:20;14.50;;;13.00;;
11839;SDS011;5979;50.800;4.904;2024-02-26T14:59:45;14.55;;;13.05;;
11839;SDS011;5979;50.800;4.904;2024-02-26T15:02:11;15.43;;;13.80;;
11839;SDS011;5979;50.800;4.904;2024-02-26T15:04:37;15.45;;;13.82;;